Latest Coastal Weather Observations for Port Macquarie Airport

IDN60701

Issued at 12:11 am EDT Wednesday 25 January 2017 (issued every 10 minutes, with the page automatically refreshed every 10 minutes)

About coastal observations | Map of coastal stations | Coastal observations for NSW | Marine services | Other Formats
Station Details ID: 060139 Name: PORT MACQUARIE AIRPORT AWS Lat: -31.43 Lon: 152.87 Height: 4.2 m
Data from the previous 72 hours. | See also: Recent months at Port Macquarie Airport
Date/Time
EDT
Temp
°C
Wind Pressure Rain since
9am
mm
Weather Cloud Vis
km
Sea
Height
m
Swell
Dir  Spd
kts
Gust
kts
hPa Trend Height
m
Period
s
Dir
25/12:00am 24.2 SSW 3 5 1013.7 - 0.0 - - 10 - - - -
 
Date/Time
EDT
Temp
°C
Wind Pressure Rain since
9am
mm
Weather Cloud Vis
km
Sea
Height
m
Swell
Dir  Spd
kts
Gust
kts
hPa Trend Height
m
Period
s
Dir
24/11:30pm 24.6 SSE 5 6 1013.4 - 0.0 - - 10 - - - -
24/11:00pm 24.5 SSE 5 6 1013.1 - 0.0 - Partly cloudy 10 - - - -
24/10:30pm 24.9 SSE 3 5 1012.6 - 0.0 - - 10 - - - -
24/10:00pm 25.3 S 3 5 1012.7 - 0.0 - - 10 - - - -
24/09:30pm 26.2 NE 3 5 1011.9 - 0.0 - Partly cloudy 10 - - - -
24/09:00pm 26.4 NE 3 5 1011.4 - 0.0 - Mostly clear 10 - - - -
24/08:30pm 26.7 NE 5 6 1011.1 - 0.0 - Partly cloudy 10 - - - -
24/08:00pm 26.7 ESE 4 7 1011.0 - 0.0 - Partly cloudy 10 - - - -
24/07:30pm 29.0 NNE 6 9 1009.9 - 0.0 - Partly cloudy 10 - - - -
24/07:00pm 30.1 NNE 7 9 1009.3 - 0.0 - - 10 - - - -
24/06:30pm 31.1 NE 7 9 1008.7 - 0.0 - - 10 - - - -
24/06:00pm 31.1 NE 7 9 1008.3 - 0.0 - - 10 - - - -
24/05:30pm 31.8 ENE 9 11 1008.1 - 0.0 - - 10 - - - -
24/05:00pm 32.6 NE 10 13 1008.0 - 0.0 - - 10 - - - -
24/04:30pm 33.6 NE 11 16 1008.1 - 0.0 - - 10 - - - -
24/04:00pm 32.7 NNE 13 17 1008.1 - 0.0 - - 10 - - - -
24/03:30pm 33.1 NE 12 17 1008.2 - 0.0 - - 10 - - - -
24/03:00pm 33.1 NE 13 17 1008.0 - 0.0 - - 10 - - - -
24/02:30pm 33.2 NE 13 17 1008.3 - 0.0 - - 10 - - - -
24/02:00pm 33.1 NE 13 16 1008.5 - 0.0 - - 10 - - - -
24/01:30pm 32.8 ENE 11 14 1008.9 - 0.0 - - 10 - - - -
24/01:00pm 32.6 ENE 11 13 1009.2 - 0.0 - - 10 - - - -
24/12:30pm 32.5 E 11 13 1009.5 - 0.0 - - 10 - - - -
24/12:00pm 32.0 E 9 11 1009.8 - 0.0 - - 10 - - - -
24/11:30am 31.6 E 9 11 1010.1 - 0.0 - - 10 - - - -
24/11:00am 31.3 E 8 11 1010.5 - 0.0 - - 10 - - - -
24/10:30am 31.0 N 6 8 1010.9 - 0.0 - - 10 - - - -
24/10:00am 29.4 N 7 9 1011.1 - 0.0 - - 10 - - - -
24/09:30am 27.2 N 7 9 1011.2 - 0.0 - - 10 - - - -
24/09:00am 25.7 N 8 11 1011.4 - 0.0 - - 10 - - - -
24/08:30am 23.9 N 8 11 1011.5 - 0.0 - - 10 - - - -
24/08:00am 22.3 N 9 11 1011.5 - 0.0 - - 10 - - - -
24/07:30am 21.1 NNE 9 11 1011.4 - 0.0 - - 10 - - - -
24/07:00am 20.1 N 7 8 1011.5 - 0.0 - - 10 - - - -
24/06:30am 19.3 N 6 7 1011.4 - 0.0 - - 10 - - - -
24/06:00am 19.1 N 6 7 1010.9 - 0.0 - - 10 - - - -
24/05:30am 19.5 NNE 6 8 1010.9 - 0.0 - - 10 - - - -
24/05:00am 19.2 N 4 5 1010.8 - 0.0 - - 10 - - - -
24/04:30am 19.6 N 5 6 1011.0 - 0.0 - - 10 - - - -
24/04:00am 20.1 N 6 7 1011.0 - 0.0 - - 10 - - - -
24/03:30am 20.5 N 7 9 1011.1 - 0.0 - - 10 - - - -
24/03:00am 21.1 N 7 10 1011.3 - 0.0 - - 10 - - - -
24/02:30am 21.5 N 8 13 1011.6 - 0.0 - - 10 - - - -
24/02:00am 21.5 N 8 11 1011.8 - 0.0 - - 10 - - - -
24/01:30am 21.6 N 8 11 1012.0 - 0.0 - - 10 - - - -
24/01:00am 21.7 N 8 11 1012.4 - 0.0 - - 10 - - - -
24/12:30am 21.9 N 8 9 1012.7 - 0.0 - - 10 - - - -
24/12:00am 22.1 NNE 7 9 1013.1 - 0.0 - - 10 - - - -
 
Date/Time
EDT
Temp
°C
Wind Pressure Rain since
9am
mm
Weather Cloud Vis
km
Sea
Height
m
Swell
Dir  Spd
kts
Gust
kts
hPa Trend Height
m
Period
s
Dir
23/11:30pm 22.4 NNE 7 9 1013.4 - 0.0 - - 10 - - - -
23/11:00pm 22.4 N 5 7 1013.6 - 0.0 - - 10 - - - -
23/10:30pm 22.7 N 7 8 1013.7 - 0.0 - - 10 - - - -
23/10:00pm 22.8 N 6 7 1013.7 - 0.0 - - 10 - - - -
23/09:30pm 23.4 N 7 11 1013.8 - 0.0 - - 10 - - - -
23/09:00pm 23.5 N 8 11 1013.6 - 0.0 - - 10 - - - -
23/08:30pm 24.2 NNE 10 13 1013.3 - 0.0 - - 10 - - - -
23/08:00pm 24.5 NNE 12 15 1013.2 - 0.0 - - 10 - - - -
23/07:30pm 25.1 NNE 13 18 1012.8 - 0.0 - - 10 - - - -
23/07:00pm 25.7 NNE 15 21 1012.5 - 0.0 - - 10 - - - -
23/06:30pm 26.3 NNE 12 20 1012.3 - 0.0 - - 10 - - - -
23/06:00pm 26.5 NNE 16 23 1012.0 - 0.0 - - 10 - - - -
23/05:30pm 27.2 NE 15 20 1012.0 - 0.0 - - 10 - - - -
23/05:00pm 27.5 NE 14 20 1012.2 - 0.0 - - 10 - - - -
23/04:30pm 28.0 NE 14 19 1012.4 - 0.0 - - 10 - - - -
23/04:00pm 28.0 NE 15 19 1012.8 - 0.0 - - 10 - - - -
23/03:30pm 27.4 NE 15 21 1013.0 - 0.0 - - 10 - - - -
23/03:00pm 27.6 NE 16 23 1013.3 - 0.0 - - 10 - - - -
23/02:30pm 27.6 NE 16 22 1013.6 - 0.0 - - 10 - - - -
23/02:00pm 27.9 NE 15 22 1014.0 - 0.0 - - 10 - - - -
23/01:30pm 28.0 NE 14 18 1014.3 - 0.0 - - 10 - - - -
23/01:00pm 27.6 NE 13 20 1014.4 - 0.0 - - 10 - - - -
23/12:30pm 27.7 NE 14 20 1014.6 - 0.0 - - 10 - - - -
23/12:00pm 28.0 NE 13 21 1015.1 - 0.0 - - 10 - - - -
23/11:30am 27.2 NE 14 19 1015.2 - 0.0 - - 10 - - - -
23/11:00am 27.0 NE 12 17 1015.5 - 0.0 - - 10 - - - -
23/10:30am 27.2 NNE 13 17 1015.7 - 0.0 - - 10 - - - -
23/10:00am 27.2 NNE 12 19 1015.8 - 0.0 - - 10 - - - -
23/09:30am 26.6 NNE 9 14 1016.1 - 0.0 - - 10 - - - -
23/09:00am 25.2 N 10 13 1016.3 - 0.0 - - 10 - - - -
23/08:30am 24.0 NNE 10 14 1016.3 - 0.0 - - 10 - - - -
23/08:00am 22.8 N 8 11 1016.4 - 0.0 - - 10 - - - -
23/07:30am 22.0 NNE 8 10 1016.1 - 0.0 - - 10 - - - -
23/07:00am 20.0 NNE 4 8 1016.0 - 0.0 - Partly cloudy 10 - - - -
23/06:30am 17.3 CALM 0 0 1015.8 - 0.0 - Partly cloudy 10 - - - -
23/06:00am 17.2 CALM 0 0 1015.5 - 0.0 - Partly cloudy 10 - - - -
23/05:30am 17.2 CALM 0 0 1015.2 - 0.0 - Partly cloudy 10 - - - -
23/05:00am 17.2 NNW 1 3 1015.0 - 0.0 - Partly cloudy 10 - - - -
23/04:30am 17.5 CALM 0 0 1014.9 - 0.0 - Partly cloudy 10 - - - -
23/04:00am 17.8 CALM 0 0 1015.0 - 0.0 - Partly cloudy 10 - - - -
23/03:30am 18.4 NW 2 3 1014.8 - 0.0 - Partly cloudy 10 - - - -
23/03:00am 19.6 N 4 5 1014.9 - 0.0 - - 10 - - - -
23/02:30am 19.8 N 4 5 1015.0 - 0.0 - - 10 - - - -
23/02:00am 20.4 N 4 6 1015.5 - 0.0 - Partly cloudy 10 - - - -
23/01:30am 21.2 N 5 6 1015.9 - 0.0 - Partly cloudy 10 - - - -
23/01:00am 21.8 N 5 7 1016.1 - 0.0 - Partly cloudy 10 - - - -
23/12:30am 22.2 N 4 5 1016.4 - 0.0 - Partly cloudy 10 - - - -
23/12:00am 22.7 N 4 6 1016.7 - 0.0 - Mostly cloudy 10 - - - -
 
Date/Time
EDT
Temp
°C
Wind Pressure Rain since
9am
mm
Weather Cloud Vis
km
Sea
Height
m
Swell
Dir  Spd
kts
Gust
kts
hPa Trend Height
m
Period
s
Dir
22/11:30pm 23.1 NNE 7 9 1016.9 - 0.0 - Partly cloudy 10 - - - -
22/11:00pm 23.2 NNE 7 9 1016.9 - 0.0 - Cloudy 10 - - - -
22/10:30pm 23.4 NNE 8 11 1017.1 - 0.0 - Partly cloudy 10 - - - -
22/10:00pm 23.4 NE 7 11 1017.2 - 0.0 - Partly cloudy 10 - - - -
22/09:30pm 23.5 NNE 7 9 1017.2 - 0.0 - Partly cloudy 10 - - - -
22/09:00pm 23.5 NE 7 11 1017.0 - 0.0 - Cloudy 10 - - - -
22/08:30pm 23.5 NE 9 12 1016.7 - 0.0 - Partly cloudy 10 - - - -
22/08:00pm 23.5 NE 7 10 1016.3 - 0.0 - - 10 - - - -
22/07:30pm 23.7 NE 9 12 1016.0 - 0.0 - - 10 - - - -
22/07:00pm 24.5 NE 9 13 1015.6 - 0.0 - - 10 - - - -
22/06:30pm 25.2 ENE 11 14 1015.5 - 0.0 - - 10 - - - -
22/06:00pm 25.2 NE 11 14 1015.4 - 0.0 - - 10 - - - -
22/05:30pm 25.5 NE 10 15 1015.3 - 0.0 - - 10 - - - -
22/05:00pm 25.7 ENE 12 15 1015.3 - 0.0 - - 10 - - - -
22/04:30pm 26.8 ENE 11 16 1015.4 - 0.0 - - 10 - - - -
22/04:00pm 26.2 ENE 12 16 1015.6 - 0.0 - - 10 - - - -
22/03:30pm 26.5 E 12 16 1015.7 - 0.0 - - 10 - - - -
22/03:00pm 27.2 E 10 13 1015.9 - 0.0 - - 10 - - - -
22/02:30pm 26.8 ENE 9 13 1016.1 - 0.0 - - 10 - - - -
22/02:00pm 27.0 E 11 15 1016.4 - 0.0 - - 10 - - - -
22/01:30pm 27.5 E 9 13 1016.5 - 0.0 - - 10 - - - -
22/01:00pm 26.8 ENE 10 13 1016.9 - 0.0 - - 10 - - - -
22/12:30pm 27.0 E 9 14 1017.0 - 0.0 - Partly cloudy 10 - - - -
22/12:00pm 26.1 ESE 8 11 1017.2 - 0.0 - Cloudy 10 - - - -
22/11:30am 27.1 ESE 5 9 1017.3 - 0.0 - Partly cloudy 10 - - - -
22/11:00am 26.1 SSE 6 9 1017.5 - 0.0 - Partly cloudy 10 - - - -
22/10:30am 26.4 S 5 9 1017.5 - 0.0 - Partly cloudy 10 - - - -
22/10:00am 24.9 SSE 5 7 1017.6 - 0.0 - Partly cloudy 10 - - - -
22/09:30am 24.7 SW 5 8 1017.5 - 0.0 - - 10 - - - -
22/09:00am 23.9 SW 6 7 1017.4 - 0.2 - Mostly clear 10 - - - -
22/08:30am 22.5 W 5 7 1017.3 - 0.2 - Partly cloudy 10 - - - -
22/08:00am 21.2 WNW 5 6 1017.0 - 0.2 - Partly cloudy 10 - - - -
22/07:30am 19.9 W 4 6 1016.9 - 0.2 - Partly cloudy 10 - - - -
22/07:00am 19.0 W 4 7 1016.7 - 0.2 - Cloudy 10 - - - -
22/06:30am 18.3 WNW 4 6 1016.3 - 0.2 - Cloudy 10 - - - -
22/06:00am 17.0 WSW 4 6 1016.0 - 0.2 Rain Mostly cloudy 10 - - - -
22/05:30am 16.1 CALM 0 4 1015.6 - 0.0 - - 10 - - - -
22/05:00am 15.8 SW 4 4 1015.4 - 0.0 - - 10 - - - -
22/04:30am 16.3 WSW 4 6 1015.2 - 0.0 - - 10 - - - -
22/04:00am 15.8 CALM 0 0 1015.1 - 0.0 - - 10 - - - -
22/03:30am 16.1 W 3 4 1015.1 - 0.0 - - 10 - - - -
22/03:00am 15.9 SSW 4 4 1015.2 - 0.0 - - 10 - - - -
22/02:30am 16.5 SW 3 4 1015.4 - 0.0 - - 10 - - - -
22/02:00am 17.9 SW 1 3 1015.7 - 0.0 - Partly cloudy 10 - - - -
22/01:30am 17.9 SW 4 5 1015.9 - 0.0 - Partly cloudy 10 - - - -
22/01:00am 18.6 SW 4 6 1016.0 - 0.0 - - 10 - - - -
22/12:30am 19.8 WNW 3 4 1016.1 - 0.0 - Partly cloudy 10 - - - -

Other Formats:

Comma delimited format used in spreadsheet applications
http://www.bom.gov.au/fwo/IDN60701/IDN60701.94786.axf

JavaScript Object Notation format (JSON) in row-major order
http://www.bom.gov.au/fwo/IDN60701/IDN60701.94786.json